sensor_id;sensor_type;location;lat;lon;timestamp;pressure;altitude;pressure_sealevel;temperature;humidity
62038;BME280;47991;42.974;12.082;2023-08-31T00:02:24;97354.41;;;14.54;88.19
62038;BME280;47991;42.974;12.082;2023-08-31T00:04:52;97357.77;;;14.63;88.48
62038;BME280;47991;42.974;12.082;2023-08-31T00:07:21;97363.86;;;14.69;88.19
62038;BME280;47991;42.974;12.082;2023-08-31T00:09:48;97363.42;;;14.70;88.20
62038;BME280;47991;42.974;12.082;2023-08-31T00:12:16;97361.79;;;14.81;88.10
62038;BME280;47991;42.974;12.082;2023-08-31T00:14:43;97362.15;;;14.91;87.61
62038;BME280;47991;42.974;12.082;2023-08-31T00:17:09;97358.23;;;14.94;87.67
62038;BME280;47991;42.974;12.082;2023-08-31T00:19:36;97356.73;;;15.00;87.74
62038;BME280;47991;42.974;12.082;2023-08-31T00:22:03;97355.50;;;15.03;87.71
62038;BME280;47991;42.974;12.082;2023-08-31T00:24:30;97357.42;;;15.07;87.79
62038;BME280;47991;42.974;12.082;2023-08-31T00:26:59;97357.39;;;15.14;87.49
62038;BME280;47991;42.974;12.082;2023-08-31T00:29:26;97360.20;;;15.22;87.47
62038;BME280;47991;42.974;12.082;2023-08-31T00:31:54;97363.52;;;15.26;87.66
62038;BME280;47991;42.974;12.082;2023-08-31T00:34:20;97369.27;;;15.18;89.46
62038;BME280;47991;42.974;12.082;2023-08-31T00:36:47;97369.98;;;15.08;89.97
62038;BME280;47991;42.974;12.082;2023-08-31T00:39:15;97374.48;;;15.01;89.89
62038;BME280;47991;42.974;12.082;2023-08-31T00:41:47;97376.44;;;14.94;89.04
62038;BME280;47991;42.974;12.082;2023-08-31T00:44:14;97377.13;;;14.98;88.73
62038;BME280;47991;42.974;12.082;2023-08-31T00:46:42;97379.27;;;15.04;88.69
62038;BME280;47991;42.974;12.082;2023-08-31T00:49:09;97377.06;;;15.09;88.56
62038;BME280;47991;42.974;12.082;2023-08-31T00:51:36;97380.86;;;15.11;88.43
62038;BME280;47991;42.974;12.082;2023-08-31T00:54:04;97380.17;;;15.15;88.49
62038;BME280;47991;42.974;12.082;2023-08-31T00:56:32;97384.13;;;15.20;88.36
62038;BME280;47991;42.974;12.082;2023-08-31T00:59:00;97384.41;;;15.22;87.99
62038;BME280;47991;42.974;12.082;2023-08-31T01:01:43;97386.46;;;15.16;88.80
62038;BME280;47991;42.974;12.082;2023-08-31T01:07:06;97389.94;;;15.01;88.95
62038;BME280;47991;42.974;12.082;2023-08-31T01:12:12;97390.04;;;15.06;88.59
62038;BME280;47991;42.974;12.082;2023-08-31T01:14:50;97393.27;;;15.09;88.57
62038;BME280;47991;42.974;12.082;2023-08-31T01:17:22;97396.61;;;15.13;88.73
62038;BME280;47991;42.974;12.082;2023-08-31T01:19:51;97397.50;;;15.20;88.49
62038;BME280;47991;42.974;12.082;2023-08-31T01:22:38;97397.79;;;15.25;88.40
62038;BME280;47991;42.974;12.082;2023-08-31T01:25:09;97393.66;;;15.29;88.30
62038;BME280;47991;42.974;12.082;2023-08-31T01:27:37;97392.25;;;15.31;88.23
62038;BME280;47991;42.974;12.082;2023-08-31T01:30:06;97391.64;;;15.37;88.13
62038;BME280;47991;42.974;12.082;2023-08-31T01:32:33;97388.83;;;15.36;88.07
62038;BME280;47991;42.974;12.082;2023-08-31T01:35:02;97390.79;;;15.39;88.18
62038;BME280;47991;42.974;12.082;2023-08-31T01:42:38;97387.33;;;15.41;87.87
62038;BME280;47991;42.974;12.082;2023-08-31T01:45:07;97386.85;;;15.43;87.85
62038;BME280;47991;42.974;12.082;2023-08-31T01:47:35;97384.65;;;15.44;87.70
62038;BME280;47991;42.974;12.082;2023-08-31T01:50:02;97382.80;;;15.42;87.78
62038;BME280;47991;42.974;12.082;2023-08-31T01:52:29;97384.05;;;15.42;88.13
62038;BME280;47991;42.974;12.082;2023-08-31T01:54:57;97384.27;;;15.44;87.98
62038;BME280;47991;42.974;12.082;2023-08-31T01:57:24;97386.81;;;15.47;87.70
62038;BME280;47991;42.974;12.082;2023-08-31T01:59:50;97386.94;;;15.44;87.72
62038;BME280;47991;42.974;12.082;2023-08-31T02:02:17;97394.78;;;15.44;87.64
62038;BME280;47991;42.974;12.082;2023-08-31T02:04:44;97397.38;;;15.46;87.78
62038;BME280;47991;42.974;12.082;2023-08-31T02:07:11;97402.65;;;15.47;87.84
62038;BME280;47991;42.974;12.082;2023-08-31T02:09:37;97409.70;;;15.48;87.94
62038;BME280;47991;42.974;12.082;2023-08-31T02:12:05;97404.10;;;15.53;87.90
62038;BME280;47991;42.974;12.082;2023-08-31T02:14:31;97414.63;;;15.53;87.17
62038;BME280;47991;42.974;12.082;2023-08-31T02:16:58;97413.47;;;15.44;87.44
62038;BME280;47991;42.974;12.082;2023-08-31T02:19:25;97416.27;;;15.22;87.46
62038;BME280;47991;42.974;12.082;2023-08-31T02:21:52;97418.41;;;14.91;88.46
62038;BME280;47991;42.974;12.082;2023-08-31T02:24:19;97416.57;;;14.78;88.90
62038;BME280;47991;42.974;12.082;2023-08-31T02:26:48;97418.61;;;14.84;89.26
62038;BME280;47991;42.974;12.082;2023-08-31T02:29:15;97419.36;;;14.87;88.99
62038;BME280;47991;42.974;12.082;2023-08-31T02:31:41;97420.95;;;14.87;88.92
62038;BME280;47991;42.974;12.082;2023-08-31T02:34:08;97420.23;;;14.83;88.50
62038;BME280;47991;42.974;12.082;2023-08-31T02:36:35;97425.03;;;14.76;88.86
62038;BME280;47991;42.974;12.082;2023-08-31T02:39:02;97427.48;;;14.74;89.27
62038;BME280;47991;42.974;12.082;2023-08-31T02:41:30;97428.23;;;14.76;89.68
62038;BME280;47991;42.974;12.082;2023-08-31T02:43:57;97430.29;;;14.82;89.43
62038;BME280;47991;42.974;12.082;2023-08-31T02:46:24;97431.02;;;14.88;89.26
62038;BME280;47991;42.974;12.082;2023-08-31T02:48:51;97432.36;;;14.90;88.68
62038;BME280;47991;42.974;12.082;2023-08-31T02:51:17;97431.37;;;14.88;88.71
62038;BME280;47991;42.974;12.082;2023-08-31T02:53:44;97432.04;;;14.85;88.43
62038;BME280;47991;42.974;12.082;2023-08-31T02:56:12;97438.52;;;14.74;88.55
62038;BME280;47991;42.974;12.082;2023-08-31T02:58:38;97435.74;;;14.72;88.59
62038;BME280;47991;42.974;12.082;2023-08-31T03:01:10;97436.97;;;14.72;88.91
62038;BME280;47991;42.974;12.082;2023-08-31T03:03:40;97436.05;;;14.73;88.78
62038;BME280;47991;42.974;12.082;2023-08-31T03:06:08;97435.23;;;14.75;88.30
62038;BME280;47991;42.974;12.082;2023-08-31T03:08:36;97432.79;;;14.74;88.38
62038;BME280;47991;42.974;12.082;2023-08-31T03:11:04;97428.81;;;14.72;88.47
62038;BME280;47991;42.974;12.082;2023-08-31T03:13:32;97430.54;;;14.69;88.49
62038;BME280;47991;42.974;12.082;2023-08-31T03:16:00;97430.95;;;14.69;88.50
62038;BME280;47991;42.974;12.082;2023-08-31T03:18:27;97427.88;;;14.66;88.53
62038;BME280;47991;42.974;12.082;2023-08-31T03:20:54;97431.76;;;14.63;88.46
62038;BME280;47991;42.974;12.082;2023-08-31T03:23:22;97434.70;;;14.61;88.63
62038;BME280;47991;42.974;12.082;2023-08-31T03:25:48;97432.67;;;14.62;88.60
62038;BME280;47991;42.974;12.082;2023-08-31T03:28:15;97432.67;;;14.62;88.47
62038;BME280;47991;42.974;12.082;2023-08-31T03:30:42;97434.17;;;14.61;88.37
62038;BME280;47991;42.974;12.082;2023-08-31T03:33:11;97433.44;;;14.57;88.19
62038;BME280;47991;42.974;12.082;2023-08-31T03:35:38;97431.45;;;14.50;88.43
62038;BME280;47991;42.974;12.082;2023-08-31T03:38:06;97436.52;;;14.45;88.68
62038;BME280;47991;42.974;12.082;2023-08-31T03:40:32;97433.09;;;14.42;88.54
62038;BME280;47991;42.974;12.082;2023-08-31T03:42:59;97434.02;;;14.42;88.63
62038;BME280;47991;42.974;12.082;2023-08-31T03:45:26;97432.56;;;14.42;88.56
62038;BME280;47991;42.974;12.082;2023-08-31T03:47:53;97434.79;;;14.40;88.31
62038;BME280;47991;42.974;12.082;2023-08-31T03:50:20;97435.70;;;14.40;88.70
62038;BME280;47991;42.974;12.082;2023-08-31T03:52:47;97442.56;;;14.41;88.74
62038;BME280;47991;42.974;12.082;2023-08-31T03:55:14;97442.64;;;14.44;88.58
62038;BME280;47991;42.974;12.082;2023-08-31T03:57:41;97440.02;;;14.39;88.33
62038;BME280;47991;42.974;12.082;2023-08-31T04:00:08;97442.42;;;14.34;88.54
62038;BME280;47991;42.974;12.082;2023-08-31T04:02:36;97438.80;;;14.31;88.65
62038;BME280;47991;42.974;12.082;2023-08-31T04:05:04;97443.77;;;14.28;88.73
62038;BME280;47991;42.974;12.082;2023-08-31T04:07:35;97449.64;;;14.24;88.61
62038;BME280;47991;42.974;12.082;2023-08-31T04:10:03;97453.20;;;14.24;88.73
62038;BME280;47991;42.974;12.082;2023-08-31T04:12:30;97461.70;;;14.25;88.95
62038;BME280;47991;42.974;12.082;2023-08-31T04:14:57;97465.27;;;14.28;88.83
62038;BME280;47991;42.974;12.082;2023-08-31T04:17:24;97471.27;;;14.29;88.86
62038;BME280;47991;42.974;12.082;2023-08-31T04:19:50;97476.57;;;14.30;88.96
62038;BME280;47991;42.974;12.082;2023-08-31T04:22:17;97482.81;;;14.29;89.00
62038;BME280;47991;42.974;12.082;2023-08-31T04:24:45;97482.89;;;14.27;88.96
62038;BME280;47991;42.974;12.082;2023-08-31T04:27:12;97480.66;;;14.30;89.17
62038;BME280;47991;42.974;12.082;2023-08-31T04:29:39;97480.77;;;14.31;89.14
62038;BME280;47991;42.974;12.082;2023-08-31T04:32:06;97482.39;;;14.35;89.28
62038;BME280;47991;42.974;12.082;2023-08-31T04:34:33;97487.77;;;14.40;89.36
62038;BME280;47991;42.974;12.082;2023-08-31T04:37:00;97488.02;;;14.43;89.41
62038;BME280;47991;42.974;12.082;2023-08-31T04:39:27;97496.80;;;14.41;89.44
62038;BME280;47991;42.974;12.082;2023-08-31T04:41:54;97499.15;;;14.41;89.39
62038;BME280;47991;42.974;12.082;2023-08-31T04:44:21;97500.52;;;14.38;89.31
62038;BME280;47991;42.974;12.082;2023-08-31T04:46:49;97507.66;;;14.38;89.54
62038;BME280;47991;42.974;12.082;2023-08-31T04:49:15;97503.48;;;14.39;89.40
62038;BME280;47991;42.974;12.082;2023-08-31T04:51:44;97507.45;;;14.42;89.28
62038;BME280;47991;42.974;12.082;2023-08-31T04:54:11;97506.96;;;14.41;89.31
62038;BME280;47991;42.974;12.082;2023-08-31T04:56:37;97506.89;;;14.43;89.47
62038;BME280;47991;42.974;12.082;2023-08-31T04:59:04;97504.84;;;14.45;89.68
62038;BME280;47991;42.974;12.082;2023-08-31T05:01:31;97505.51;;;14.46;89.71
62038;BME280;47991;42.974;12.082;2023-08-31T05:03:58;97505.15;;;14.49;89.54
62038;BME280;47991;42.974;12.082;2023-08-31T05:06:25;97511.17;;;14.57;89.30
62038;BME280;47991;42.974;12.082;2023-08-31T05:08:52;97514.04;;;14.72;89.31
62038;BME280;47991;42.974;12.082;2023-08-31T05:11:19;97522.02;;;15.01;89.29
62038;BME280;47991;42.974;12.082;2023-08-31T05:13:47;97527.17;;;15.47;88.82
62038;BME280;47991;42.974;12.082;2023-08-31T05:16:15;97533.30;;;15.97;87.91
62038;BME280;47991;42.974;12.082;2023-08-31T05:18:41;97535.91;;;16.05;87.85
62038;BME280;47991;42.974;12.082;2023-08-31T05:21:08;97537.08;;;15.80;89.01
62038;BME280;47991;42.974;12.082;2023-08-31T05:23:35;97540.27;;;15.56;89.11
62038;BME280;47991;42.974;12.082;2023-08-31T05:26:02;97544.27;;;15.43;89.84
62038;BME280;47991;42.974;12.082;2023-08-31T05:28:28;97547.61;;;15.51;90.11
62038;BME280;47991;42.974;12.082;2023-08-31T05:30:56;97552.00;;;15.87;90.00
62038;BME280;47991;42.974;12.082;2023-08-31T05:33:24;97546.98;;;16.44;88.52
62038;BME280;47991;42.974;12.082;2023-08-31T05:35:54;97552.66;;;16.58;87.04
62038;BME280;47991;42.974;12.082;2023-08-31T05:38:21;97556.80;;;16.57;86.93
62038;BME280;47991;42.974;12.082;2023-08-31T05:40:48;97559.89;;;16.56;86.99
62038;BME280;47991;42.974;12.082;2023-08-31T05:43:15;97565.55;;;16.69;86.43
62038;BME280;47991;42.974;12.082;2023-08-31T05:45:42;97564.77;;;17.27;83.67
62038;BME280;47991;42.974;12.082;2023-08-31T05:48:09;97566.73;;;17.67;81.56
62038;BME280;47991;42.974;12.082;2023-08-31T05:50:36;97568.42;;;17.50;81.80
62038;BME280;47991;42.974;12.082;2023-08-31T05:53:04;97571.04;;;17.48;83.81
62038;BME280;47991;42.974;12.082;2023-08-31T05:55:31;97573.10;;;18.44;83.31
62038;BME280;47991;42.974;12.082;2023-08-31T05:57:59;97576.17;;;18.83;81.23
62038;BME280;47991;42.974;12.082;2023-08-31T06:00:27;97570.95;;;19.13;80.45
62038;BME280;47991;42.974;12.082;2023-08-31T06:02:54;97576.27;;;19.89;79.08
62038;BME280;47991;42.974;12.082;2023-08-31T06:05:21;97576.16;;;20.70;76.73
62038;BME280;47991;42.974;12.082;2023-08-31T06:07:47;97575.73;;;21.30;73.92
62038;BME280;47991;42.974;12.082;2023-08-31T06:10:15;97579.31;;;21.73;71.32
62038;BME280;47991;42.974;12.082;2023-08-31T06:12:42;97587.38;;;21.64;72.62
62038;BME280;47991;42.974;12.082;2023-08-31T06:15:09;97589.31;;;21.36;69.99
62038;BME280;47991;42.974;12.082;2023-08-31T06:17:36;97592.14;;;21.65;68.29
62038;BME280;47991;42.974;12.082;2023-08-31T06:20:03;97593.06;;;21.84;67.82
62038;BME280;47991;42.974;12.082;2023-08-31T06:22:32;97591.52;;;22.34;66.54
62038;BME280;47991;42.974;12.082;2023-08-31T06:24:58;97587.73;;;22.79;65.52
62038;BME280;47991;42.974;12.082;2023-08-31T06:27:26;97585.34;;;23.12;65.44
62038;BME280;47991;42.974;12.082;2023-08-31T06:29:52;97585.52;;;23.85;65.35
62038;BME280;47991;42.974;12.082;2023-08-31T06:32:19;97587.96;;;23.86;62.58
62038;BME280;47991;42.974;12.082;2023-08-31T06:34:46;97588.23;;;24.08;64.44
62038;BME280;47991;42.974;12.082;2023-08-31T06:37:13;97589.48;;;24.69;60.05
62038;BME280;47991;42.974;12.082;2023-08-31T06:39:40;97589.52;;;24.59;57.16
62038;BME280;47991;42.974;12.082;2023-08-31T06:42:07;97590.25;;;24.67;56.57
62038;BME280;47991;42.974;12.082;2023-08-31T06:44:34;97592.91;;;24.46;57.34
62038;BME280;47991;42.974;12.082;2023-08-31T06:47:01;97590.58;;;24.44;57.45
62038;BME280;47991;42.974;12.082;2023-08-31T06:49:28;97587.48;;;24.98;56.36
62038;BME280;47991;42.974;12.082;2023-08-31T06:51:56;97586.39;;;25.43;56.57
62038;BME280;47991;42.974;12.082;2023-08-31T06:54:23;97589.45;;;25.83;56.19
62038;BME280;47991;42.974;12.082;2023-08-31T06:56:50;97594.55;;;26.14;53.88
62038;BME280;47991;42.974;12.082;2023-08-31T06:59:17;97593.37;;;26.30;52.69
62038;BME280;47991;42.974;12.082;2023-08-31T07:01:44;97594.54;;;26.29;52.64
62038;BME280;47991;42.974;12.082;2023-08-31T07:04:11;97593.58;;;26.30;52.08
62038;BME280;47991;42.974;12.082;2023-08-31T07:06:37;97599.08;;;26.86;51.39
62038;BME280;47991;42.974;12.082;2023-08-31T07:09:04;97599.05;;;27.17;49.40
62038;BME280;47991;42.974;12.082;2023-08-31T07:11:35;97595.45;;;27.81;48.62
62038;BME280;47991;42.974;12.082;2023-08-31T07:14:01;97596.77;;;27.70;47.67
62038;BME280;47991;42.974;12.082;2023-08-31T07:16:28;97602.83;;;27.07;49.89
62038;BME280;47991;42.974;12.082;2023-08-31T07:18:55;97607.02;;;26.85;50.52
62038;BME280;47991;42.974;12.082;2023-08-31T07:21:22;97608.73;;;26.11;50.83
62038;BME280;47991;42.974;12.082;2023-08-31T07:23:49;97611.69;;;25.74;53.79
62038;BME280;47991;42.974;12.082;2023-08-31T07:26:16;97620.89;;;25.67;53.21
62038;BME280;47991;42.974;12.082;2023-08-31T07:28:42;97624.95;;;25.24;54.13
62038;BME280;47991;42.974;12.082;2023-08-31T07:31:10;97626.70;;;25.16;54.56
62038;BME280;47991;42.974;12.082;2023-08-31T07:33:37;97625.94;;;24.96;54.32
62038;BME280;47991;42.974;12.082;2023-08-31T07:36:04;97630.95;;;24.28;56.66
62038;BME280;47991;42.974;12.082;2023-08-31T07:38:32;97638.77;;;23.22;59.58
62038;BME280;47991;42.974;12.082;2023-08-31T07:41:00;97637.04;;;23.10;60.20
62038;BME280;47991;42.974;12.082;2023-08-31T07:43:27;97644.66;;;23.25;59.85
62038;BME280;47991;42.974;12.082;2023-08-31T07:45:53;97651.66;;;23.12;60.39
62038;BME280;47991;42.974;12.082;2023-08-31T07:48:20;97654.76;;;22.69;61.11
62038;BME280;47991;42.974;12.082;2023-08-31T07:50:48;97655.64;;;22.80;61.11
62038;BME280;47991;42.974;12.082;2023-08-31T07:53:15;97662.38;;;22.50;62.77
62038;BME280;47991;42.974;12.082;2023-08-31T07:55:54;97664.30;;;22.66;62.43
62038;BME280;47991;42.974;12.082;2023-08-31T07:58:21;97670.56;;;22.81;61.96
62038;BME280;47991;42.974;12.082;2023-08-31T08:00:51;97674.46;;;22.70;61.79
62038;BME280;47991;42.974;12.082;2023-08-31T08:03:18;97670.99;;;22.86;61.57
62038;BME280;47991;42.974;12.082;2023-08-31T08:05:45;97672.55;;;22.60;63.36
62038;BME280;47991;42.974;12.082;2023-08-31T08:08:12;97673.02;;;22.45;64.38
62038;BME280;47991;42.974;12.082;2023-08-31T08:10:39;97681.34;;;22.31;64.85
62038;BME280;47991;42.974;12.082;2023-08-31T08:13:06;97681.08;;;22.38;64.45
62038;BME280;47991;42.974;12.082;2023-08-31T08:15:32;97683.44;;;22.33;63.35
62038;BME280;47991;42.974;12.082;2023-08-31T08:17:59;97690.50;;;21.86;64.10
62038;BME280;47991;42.974;12.082;2023-08-31T08:20:27;97689.83;;;21.78;64.22
62038;BME280;47991;42.974;12.082;2023-08-31T08:22:55;97691.13;;;21.75;64.22
62038;BME280;47991;42.974;12.082;2023-08-31T08:25:22;97693.86;;;21.72;63.72
62038;BME280;47991;42.974;12.082;2023-08-31T08:27:50;97690.08;;;21.91;62.16
62038;BME280;47991;42.974;12.082;2023-08-31T08:30:16;97695.05;;;22.15;62.80
62038;BME280;47991;42.974;12.082;2023-08-31T08:32:45;97697.98;;;22.05;61.54
62038;BME280;47991;42.974;12.082;2023-08-31T08:35:12;97697.44;;;21.94;61.28
62038;BME280;47991;42.974;12.082;2023-08-31T08:37:38;97701.89;;;21.85;63.89
62038;BME280;47991;42.974;12.082;2023-08-31T08:40:06;97702.80;;;21.80;66.06
62038;BME280;47991;42.974;12.082;2023-08-31T08:42:39;97712.23;;;21.50;67.12
62038;BME280;47991;42.974;12.082;2023-08-31T08:45:14;97712.85;;;21.41;63.85
62038;BME280;47991;42.974;12.082;2023-08-31T08:47:44;97711.66;;;21.72;63.49
62038;BME280;47991;42.974;12.082;2023-08-31T08:50:13;97709.48;;;22.08;65.44
62038;BME280;47991;42.974;12.082;2023-08-31T08:52:40;97715.09;;;22.22;65.55
62038;BME280;47991;42.974;12.082;2023-08-31T08:55:08;97715.39;;;22.28;64.54
62038;BME280;47991;42.974;12.082;2023-08-31T08:57:35;97719.41;;;22.22;62.88
62038;BME280;47991;42.974;12.082;2023-08-31T09:00:03;97721.05;;;22.29;62.34
62038;BME280;47991;42.974;12.082;2023-08-31T09:02:30;97719.08;;;22.29;61.44
62038;BME280;47991;42.974;12.082;2023-08-31T09:04:57;97719.94;;;22.11;61.72
62038;BME280;47991;42.974;12.082;2023-08-31T09:07:24;97721.54;;;22.20;60.91
62038;BME280;47991;42.974;12.082;2023-08-31T09:09:54;97729.06;;;22.35;60.75
62038;BME280;47991;42.974;12.082;2023-08-31T09:12:22;97729.80;;;22.65;60.31
62038;BME280;47991;42.974;12.082;2023-08-31T09:15:04;97733.41;;;22.97;59.87
62038;BME280;47991;42.974;12.082;2023-08-31T09:17:43;97737.59;;;22.85;59.50
62038;BME280;47991;42.974;12.082;2023-08-31T09:20:13;97735.51;;;22.68;59.58
62038;BME280;47991;42.974;12.082;2023-08-31T09:22:43;97738.91;;;22.41;59.18
62038;BME280;47991;42.974;12.082;2023-08-31T09:25:11;97746.40;;;22.17;59.45
62038;BME280;47991;42.974;12.082;2023-08-31T09:27:38;97745.27;;;22.23;60.38
62038;BME280;47991;42.974;12.082;2023-08-31T09:30:07;97748.52;;;22.23;60.55
62038;BME280;47991;42.974;12.082;2023-08-31T09:32:35;97746.41;;;22.48;59.84
62038;BME280;47991;42.974;12.082;2023-08-31T09:35:03;97748.30;;;22.77;59.72
62038;BME280;47991;42.974;12.082;2023-08-31T09:37:35;97748.64;;;22.76;57.29
62038;BME280;47991;42.974;12.082;2023-08-31T09:40:03;97748.52;;;23.07;56.70
62038;BME280;47991;42.974;12.082;2023-08-31T09:42:36;97749.83;;;23.51;56.16
62038;BME280;47991;42.974;12.082;2023-08-31T09:45:05;97747.02;;;24.10;55.61
62038;BME280;47991;42.974;12.082;2023-08-31T09:47:32;97748.14;;;24.55;53.37
62038;BME280;47991;42.974;12.082;2023-08-31T09:50:00;97746.77;;;24.98;52.15
62038;BME280;47991;42.974;12.082;2023-08-31T09:52:28;97746.84;;;24.78;51.60
62038;BME280;47991;42.974;12.082;2023-08-31T09:54:55;97750.27;;;24.53;52.50
62038;BME280;47991;42.974;12.082;2023-08-31T09:57:24;97747.15;;;24.62;52.56
62038;BME280;47991;42.974;12.082;2023-08-31T09:59:52;97741.79;;;24.74;51.87
62038;BME280;47991;42.974;12.082;2023-08-31T10:02:19;97738.67;;;25.08;52.53
62038;BME280;47991;42.974;12.082;2023-08-31T10:04:46;97742.15;;;25.26;50.64
62038;BME280;47991;42.974;12.082;2023-08-31T10:07:15;97739.82;;;25.36;49.33
62038;BME280;47991;42.974;12.082;2023-08-31T10:09:42;97738.46;;;24.77;47.99
62038;BME280;47991;42.974;12.082;2023-08-31T10:12:10;97739.32;;;24.37;48.89
62038;BME280;47991;42.974;12.082;2023-08-31T10:14:37;97742.17;;;24.72;48.81
62038;BME280;47991;42.974;12.082;2023-08-31T10:17:04;97740.21;;;24.61;47.73
62038;BME280;47991;42.974;12.082;2023-08-31T10:19:31;97737.77;;;24.43;47.22
62038;BME280;47991;42.974;12.082;2023-08-31T10:21:58;97731.16;;;24.67;47.44
62038;BME280;47991;42.974;12.082;2023-08-31T10:25:01;97729.81;;;25.16;48.27
62038;BME280;47991;42.974;12.082;2023-08-31T10:27:42;97729.97;;;25.63;47.61
62038;BME280;47991;42.974;12.082;2023-08-31T10:33:21;97730.49;;;25.84;46.67
62038;BME280;47991;42.974;12.082;2023-08-31T10:38:22;97728.73;;;25.95;46.69
62038;BME280;47991;42.974;12.082;2023-08-31T10:41:22;97726.69;;;26.19;47.15
62038;BME280;47991;42.974;12.082;2023-08-31T10:43:55;97725.88;;;26.46;45.41
62038;BME280;47991;42.974;12.082;2023-08-31T10:48:55;97723.77;;;26.78;46.11
62038;BME280;47991;42.974;12.082;2023-08-31T10:51:24;97723.63;;;26.93;44.88
62038;BME280;47991;42.974;12.082;2023-08-31T10:53:51;97721.97;;;26.87;43.73
62038;BME280;47991;42.974;12.082;2023-08-31T10:56:19;97724.39;;;26.62;43.17
62038;BME280;47991;42.974;12.082;2023-08-31T10:58:59;97719.73;;;26.43;43.68
62038;BME280;47991;42.974;12.082;2023-08-31T11:01:55;97721.98;;;26.42;43.82
62038;BME280;47991;42.974;12.082;2023-08-31T11:04:23;97719.58;;;26.74;43.37
62038;BME280;47991;42.974;12.082;2023-08-31T11:07:17;97718.64;;;26.61;42.66
62038;BME280;47991;42.974;12.082;2023-08-31T11:09:45;97716.55;;;26.42;43.01
62038;BME280;47991;42.974;12.082;2023-08-31T11:12:13;97718.06;;;25.98;43.35
62038;BME280;47991;42.974;12.082;2023-08-31T11:14:41;97713.81;;;25.65;43.57
62038;BME280;47991;42.974;12.082;2023-08-31T11:17:08;97717.29;;;25.14;43.99
62038;BME280;47991;42.974;12.082;2023-08-31T11:19:36;97718.11;;;24.99;45.25
62038;BME280;47991;42.974;12.082;2023-08-31T11:22:03;97718.45;;;25.18;45.02
62038;BME280;47991;42.974;12.082;2023-08-31T11:24:31;97715.08;;;25.56;44.83
62038;BME280;47991;42.974;12.082;2023-08-31T11:26:59;97716.56;;;25.93;45.30
62038;BME280;47991;42.974;12.082;2023-08-31T11:29:30;97712.56;;;26.23;44.23
62038;BME280;47991;42.974;12.082;2023-08-31T11:31:57;97712.64;;;26.42;44.04
62038;BME280;47991;42.974;12.082;2023-08-31T11:34:27;97709.55;;;26.36;42.94
62038;BME280;47991;42.974;12.082;2023-08-31T11:36:54;97708.36;;;26.52;42.99
62038;BME280;47991;42.974;12.082;2023-08-31T11:39:22;97708.63;;;26.48;41.51
62038;BME280;47991;42.974;12.082;2023-08-31T11:41:51;97707.23;;;26.28;43.44
62038;BME280;47991;42.974;12.082;2023-08-31T11:44:18;97704.34;;;26.30;43.32
62038;BME280;47991;42.974;12.082;2023-08-31T11:46:46;97708.02;;;26.27;44.31
62038;BME280;47991;42.974;12.082;2023-08-31T11:49:20;97710.82;;;26.18;44.06
62038;BME280;47991;42.974;12.082;2023-08-31T11:51:49;97708.17;;;26.45;43.75
62038;BME280;47991;42.974;12.082;2023-08-31T11:54:17;97705.48;;;26.75;43.74
62038;BME280;47991;42.974;12.082;2023-08-31T11:56:46;97704.17;;;26.95;43.59
62038;BME280;47991;42.974;12.082;2023-08-31T11:59:16;97702.38;;;26.79;43.08
62038;BME280;47991;42.974;12.082;2023-08-31T12:01:45;97706.83;;;26.73;42.90
62038;BME280;47991;42.974;12.082;2023-08-31T12:04:19;97702.62;;;26.59;43.40
62038;BME280;47991;42.974;12.082;2023-08-31T12:06:47;97702.88;;;26.16;43.25
62038;BME280;47991;42.974;12.082;2023-08-31T12:09:15;97698.14;;;26.05;44.49
62038;BME280;47991;42.974;12.082;2023-08-31T12:11:42;97695.14;;;26.29;44.36
62038;BME280;47991;42.974;12.082;2023-08-31T12:16:47;97695.80;;;26.51;44.24
62038;BME280;47991;42.974;12.082;2023-08-31T12:19:14;97695.42;;;26.59;44.02
62038;BME280;47991;42.974;12.082;2023-08-31T12:21:45;97695.60;;;26.47;44.06
62038;BME280;47991;42.974;12.082;2023-08-31T12:24:13;97696.83;;;26.48;43.54
62038;BME280;47991;42.974;12.082;2023-08-31T12:26:40;97697.98;;;26.34;43.27
62038;BME280;47991;42.974;12.082;2023-08-31T12:29:07;97695.34;;;26.46;43.44
62038;BME280;47991;42.974;12.082;2023-08-31T12:31:34;97702.91;;;26.66;43.32
62038;BME280;47991;42.974;12.082;2023-08-31T12:34:01;97702.46;;;26.71;43.70
62038;BME280;47991;42.974;12.082;2023-08-31T12:36:31;97700.45;;;26.80;42.83
62038;BME280;47991;42.974;12.082;2023-08-31T12:38:59;97700.44;;;26.84;42.93
62038;BME280;47991;42.974;12.082;2023-08-31T12:41:33;97694.91;;;27.04;43.11
62038;BME280;47991;42.974;12.082;2023-08-31T12:44:00;97696.17;;;27.27;42.91
62038;BME280;47991;42.974;12.082;2023-08-31T12:46:27;97692.68;;;27.53;42.41
62038;BME280;47991;42.974;12.082;2023-08-31T12:48:54;97694.45;;;27.70;41.41
62038;BME280;47991;42.974;12.082;2023-08-31T12:51:21;97691.04;;;27.83;40.58
62038;BME280;47991;42.974;12.082;2023-08-31T12:53:48;97692.30;;;27.88;41.15
62038;BME280;47991;42.974;12.082;2023-08-31T12:56:15;97695.73;;;27.81;40.07
62038;BME280;47991;42.974;12.082;2023-08-31T12:58:49;97692.85;;;27.97;40.67
62038;BME280;47991;42.974;12.082;2023-08-31T13:01:17;97695.20;;;27.96;40.21
62038;BME280;47991;42.974;12.082;2023-08-31T13:03:45;97690.86;;;27.99;40.45
62038;BME280;47991;42.974;12.082;2023-08-31T13:06:14;97696.39;;;27.73;39.97
62038;BME280;47991;42.974;12.082;2023-08-31T13:08:44;97692.14;;;27.49;40.83
62038;BME280;47991;42.974;12.082;2023-08-31T13:11:11;97694.99;;;27.80;40.89
62038;BME280;47991;42.974;12.082;2023-08-31T13:13:39;97694.23;;;28.04;40.73
62038;BME280;47991;42.974;12.082;2023-08-31T13:16:06;97689.50;;;28.22;40.44
62038;BME280;47991;42.974;12.082;2023-08-31T13:18:33;97687.36;;;28.26;39.78